createdAt,value
2022-07-30T00:00:37.333Z,9.3
2022-07-30T00:01:37.393Z,9.3
2022-07-30T00:02:37.367Z,9.3
2022-07-30T00:03:37.369Z,9.4
2022-07-30T00:04:37.340Z,9.4
2022-07-30T00:05:37.350Z,9.4
2022-07-30T00:06:37.334Z,9.5
2022-07-30T00:07:37.326Z,9.5
2022-07-30T00:08:37.341Z,9.5
2022-07-30T00:09:37.353Z,9.5
2022-07-30T00:10:37.365Z,9.5
2022-07-30T00:11:37.336Z,9.5
2022-07-30T00:12:37.332Z,9.5
2022-07-30T00:13:37.334Z,9.5
2022-07-30T00:14:37.363Z,9.5
2022-07-30T00:15:37.317Z,9.5
2022-07-30T00:16:37.370Z,9.5
2022-07-30T00:17:37.362Z,9.5
2022-07-30T00:18:37.330Z,9.5
2022-07-30T00:19:44.182Z,9.5
2022-07-30T00:20:37.350Z,9.5
2022-07-30T00:21:39.091Z,9.5
2022-07-30T00:22:37.377Z,9.5
2022-07-30T00:23:37.342Z,9.5
2022-07-30T00:24:37.342Z,9.6
2022-07-30T00:26:37.329Z,9.5
2022-07-30T00:27:37.346Z,9.5
2022-07-30T00:28:37.325Z,9.4
2022-07-30T00:29:37.327Z,9.5
2022-07-30T00:30:37.392Z,9.4
2022-07-30T00:31:37.337Z,9.4
2022-07-30T00:32:37.347Z,9.5
2022-07-30T00:33:37.346Z,9.5
2022-07-30T00:34:37.328Z,9.5
2022-07-30T00:35:37.335Z,9.5
2022-07-30T00:36:37.561Z,9.4
2022-07-30T00:37:37.340Z,9.5
2022-07-30T00:38:37.356Z,9.4
2022-07-30T00:39:37.331Z,9.5
2022-07-30T00:40:37.338Z,9.5
2022-07-30T00:41:37.338Z,9.4
2022-07-30T00:42:37.353Z,9.4
2022-07-30T00:43:37.344Z,9.4
2022-07-30T00:44:37.334Z,9.4
2022-07-30T00:45:37.417Z,9.5
2022-07-30T00:46:37.347Z,9.5
2022-07-30T00:47:37.350Z,9.5
2022-07-30T00:48:37.480Z,9.5
2022-07-30T00:49:41.374Z,9.5
2022-07-30T00:50:37.331Z,9.5
2022-07-30T00:51:37.349Z,9.4
2022-07-30T00:52:37.344Z,9.4
2022-07-30T00:53:37.331Z,9.5
2022-07-30T00:54:37.339Z,9.5
2022-07-30T00:55:37.344Z,9.5
2022-07-30T00:56:37.339Z,9.4
2022-07-30T00:57:37.344Z,9.4
2022-07-30T00:58:37.359Z,9.5
2022-07-30T00:59:37.345Z,9.4
2022-07-30T01:00:37.332Z,9.4
2022-07-30T01:01:37.467Z,9.4
2022-07-30T01:02:37.448Z,9.4
2022-07-30T01:03:37.332Z,9.4
2022-07-30T01:04:37.353Z,9.4
2022-07-30T01:05:37.338Z,9.4
2022-07-30T01:06:37.347Z,9.4
2022-07-30T01:07:37.349Z,9.4
2022-07-30T01:08:37.350Z,9.4
2022-07-30T01:09:37.354Z,9.4
2022-07-30T01:10:37.365Z,9.4
2022-07-30T01:11:37.358Z,9.4
2022-07-30T01:12:37.347Z,9.4
2022-07-30T01:13:37.344Z,9.5
2022-07-30T01:14:37.352Z,9.4
2022-07-30T01:15:37.342Z,9.4
2022-07-30T01:16:37.940Z,9.4
2022-07-30T01:17:37.362Z,9.4
2022-07-30T01:18:37.357Z,9.4
2022-07-30T01:19:31.632Z,9.4
2022-07-30T01:20:37.358Z,9.4
2022-07-30T01:21:37.355Z,9.4
2022-07-30T01:22:37.343Z,9.4
2022-07-30T01:23:37.354Z,9.4
2022-07-30T01:24:37.341Z,9.5
2022-07-30T01:25:37.346Z,9.5
2022-07-30T01:26:37.342Z,9.5
2022-07-30T01:27:37.371Z,9.5
2022-07-30T01:28:37.347Z,9.4
2022-07-30T01:29:37.357Z,9.4
2022-07-30T01:30:37.423Z,9.5
2022-07-30T01:31:37.423Z,9.5
2022-07-30T01:32:37.359Z,9.5
2022-07-30T01:33:37.346Z,9.4
2022-07-30T01:34:37.338Z,9.4
2022-07-30T01:35:37.419Z,9.4
2022-07-30T01:36:37.347Z,9.4
2022-07-30T01:37:37.365Z,9.3
2022-07-30T01:38:37.359Z,9.3
2022-07-30T01:39:37.364Z,9.4
2022-07-30T01:40:37.339Z,9.4
2022-07-30T01:41:37.401Z,9.4
2022-07-30T01:42:37.357Z,9.5
2022-07-30T01:43:37.343Z,9.5
2022-07-30T01:44:37.359Z,9.5
2022-07-30T01:45:42.100Z,9.5
2022-07-30T01:46:37.386Z,9.5
2022-07-30T01:47:37.375Z,9.6
2022-07-30T01:48:37.358Z,9.6
2022-07-30T01:49:37.368Z,9.6
2022-07-30T01:50:37.360Z,9.6
2022-07-30T01:51:37.886Z,9.6
2022-07-30T01:52:37.359Z,9.5
2022-07-30T01:53:37.358Z,9.6
2022-07-30T01:54:37.354Z,9.6
2022-07-30T01:55:37.344Z,9.5
2022-07-30T01:56:37.377Z,9.5
2022-07-30T01:57:37.353Z,9.4
2022-07-30T01:58:37.349Z,9.5
2022-07-30T01:59:37.367Z,9.3
2022-07-30T02:00:37.415Z,9.3
2022-07-30T02:02:37.368Z,9.3
2022-07-30T02:03:37.439Z,9.4
2022-07-30T02:04:37.348Z,9.3
2022-07-30T02:05:37.362Z,9.3
2022-07-30T02:06:37.362Z,9.3
2022-07-30T02:07:37.353Z,9.3
2022-07-30T02:08:37.366Z,9.3
2022-07-30T02:09:37.360Z,9.3
2022-07-30T02:10:37.368Z,9.3
2022-07-30T02:11:37.376Z,9.4
2022-07-30T02:12:37.377Z,9.4
2022-07-30T02:13:37.351Z,9.4
2022-07-30T02:14:37.361Z,9.4
2022-07-30T02:15:37.360Z,9.4
2022-07-30T02:16:37.483Z,9.4
2022-07-30T02:17:39.842Z,9.4
2022-07-30T02:18:39.649Z,9.4
2022-07-30T02:19:37.373Z,9.4
2022-07-30T02:20:38.518Z,9.3
2022-07-30T02:21:37.375Z,9.4
2022-07-30T02:22:37.361Z,9.6
2022-07-30T02:23:37.408Z,9.4
2022-07-30T02:24:37.379Z,9.4
2022-07-30T02:25:37.353Z,9.4
2022-07-30T02:26:37.357Z,9.5
2022-07-30T02:27:38.270Z,9.5
2022-07-30T02:28:37.391Z,9.6
2022-07-30T02:29:37.355Z,9.5
2022-07-30T02:30:37.372Z,9.7
2022-07-30T02:31:37.436Z,9.5
2022-07-30T02:32:37.376Z,9.4
2022-07-30T02:33:37.366Z,9.5
2022-07-30T02:34:37.362Z,9.4
2022-07-30T02:35:37.368Z,9.3
2022-07-30T02:36:37.373Z,9.4
2022-07-30T02:37:41.650Z,9.5
2022-07-30T02:38:37.370Z,9.3
2022-07-30T02:39:37.374Z,9.3
2022-07-30T02:40:37.367Z,9.3
2022-07-30T02:41:37.388Z,9.4
2022-07-30T02:42:37.375Z,9.4
2022-07-30T02:43:37.366Z,9.4
2022-07-30T02:44:37.355Z,9.4
2022-07-30T02:45:37.367Z,9.4
2022-07-30T02:46:37.410Z,9.4
2022-07-30T02:48:37.378Z,9.4
2022-07-30T02:49:37.361Z,9.3
2022-07-30T02:50:37.402Z,9.6
2022-07-30T02:51:37.374Z,9.4
2022-07-30T02:52:37.364Z,9.4
2022-07-30T02:53:37.370Z,9.4
2022-07-30T02:54:37.370Z,9.5
2022-07-30T02:55:37.389Z,9.6
2022-07-30T02:56:37.357Z,9.5
2022-07-30T02:57:37.390Z,9.3
2022-07-30T02:58:37.374Z,9.4
2022-07-30T02:59:37.380Z,9.4
2022-07-30T03:00:37.566Z,9.4
2022-07-30T03:01:37.434Z,9.4
2022-07-30T03:02:37.410Z,9.3
2022-07-30T03:03:37.365Z,9.4
2022-07-30T03:04:37.384Z,9.3
2022-07-30T03:05:37.391Z,9.3
2022-07-30T03:06:37.367Z,9.5
2022-07-30T03:07:37.389Z,9.6
2022-07-30T03:08:37.472Z,9.4
2022-07-30T03:09:51.393Z,9.3
2022-07-30T03:10:37.372Z,9.5
2022-07-30T03:11:37.388Z,9.5
2022-07-30T03:12:37.366Z,9.3
2022-07-30T03:13:37.376Z,9.3
2022-07-30T03:14:37.370Z,9.3
2022-07-30T03:15:39.410Z,9.6
2022-07-30T03:16:37.470Z,9.4
2022-07-30T03:17:37.396Z,9.6
2022-07-30T03:18:37.366Z,9.4
2022-07-30T03:19:37.379Z,9.5
2022-07-30T03:20:37.368Z,9.5
2022-07-30T03:21:37.374Z,9.5
2022-07-30T03:22:37.374Z,9.6
2022-07-30T03:23:37.365Z,9.6
2022-07-30T03:24:37.377Z,9.6
2022-07-30T03:25:37.391Z,9.6
2022-07-30T03:26:37.390Z,9.6
2022-07-30T03:27:37.396Z,9.3
2022-07-30T03:28:37.372Z,9.3
2022-07-30T03:29:37.392Z,9.5
2022-07-30T03:30:37.370Z,9.2
2022-07-30T03:31:37.878Z,9.3
2022-07-30T03:32:37.395Z,9.3
2022-07-30T03:34:37.376Z,9.3
2022-07-30T03:35:37.379Z,9.2
2022-07-30T03:36:37.385Z,9.3
2022-07-30T03:37:37.378Z,9.3
2022-07-30T03:38:37.380Z,9.3
2022-07-30T03:39:37.367Z,9.4
2022-07-30T03:40:37.374Z,9.3
2022-07-30T03:41:37.379Z,9.3
2022-07-30T03:42:37.436Z,9.3
2022-07-30T03:43:37.376Z,9.2
2022-07-30T03:44:37.385Z,9.3
2022-07-30T03:45:37.385Z,9.3
2022-07-30T03:46:37.487Z,9.3
2022-07-30T03:47:37.392Z,9.4
2022-07-30T03:48:37.378Z,9.6
2022-07-30T03:49:37.383Z,9.5
2022-07-30T03:50:37.382Z,9.5
2022-07-30T03:51:37.386Z,9.3
2022-07-30T03:52:37.393Z,9.5
2022-07-30T03:53:37.383Z,9.4
2022-07-30T03:54:37.386Z,9.3
2022-07-30T03:55:37.387Z,9.3
2022-07-30T03:56:37.379Z,9.5
2022-07-30T03:57:37.431Z,9.5
2022-07-30T03:58:37.407Z,9.6
2022-07-30T03:59:37.404Z,9.5
2022-07-30T04:00:37.381Z,9.5
2022-07-30T04:01:37.479Z,9.6
2022-07-30T04:02:37.383Z,9.5
2022-07-30T04:03:37.456Z,9.6
2022-07-30T04:04:37.395Z,9.5
2022-07-30T04:05:41.680Z,9.6
2022-07-30T04:06:37.387Z,9.6
2022-07-30T04:07:44.810Z,9.6
2022-07-30T04:08:37.386Z,9.6
2022-07-30T04:09:37.383Z,9.5
2022-07-30T04:10:37.387Z,9.5
2022-07-30T04:11:41.437Z,9.5
2022-07-30T04:12:37.387Z,9.5
2022-07-30T04:13:37.396Z,9.6
2022-07-30T04:14:37.392Z,9.6
2022-07-30T04:16:35.542Z,9.6
2022-07-30T04:16:42.200Z,9.6
2022-07-30T04:17:37.472Z,9.6
2022-07-30T04:18:37.387Z,9.6
2022-07-30T04:19:37.387Z,9.6
2022-07-30T04:20:37.388Z,9.6
2022-07-30T04:21:37.397Z,9.6
2022-07-30T04:22:37.377Z,9.6
2022-07-30T04:24:03.638Z,9.3
2022-07-30T04:24:37.386Z,9.2
2022-07-30T04:25:37.399Z,9.4
2022-07-30T04:26:37.390Z,9.5
2022-07-30T04:27:37.405Z,9.5
2022-07-30T04:28:37.403Z,9.5
2022-07-30T04:29:37.379Z,9.5
2022-07-30T04:30:37.403Z,9.6
2022-07-30T04:31:40.024Z,9.5
2022-07-30T04:32:37.386Z,9.5
2022-07-30T04:33:37.384Z,9.5
2022-07-30T04:34:37.388Z,9.5
2022-07-30T04:35:50.985Z,9.5
2022-07-30T04:36:37.394Z,9.6
2022-07-30T04:37:37.394Z,9.5
2022-07-30T04:38:37.402Z,9.5
2022-07-30T04:39:37.452Z,9.5
2022-07-30T04:40:37.398Z,9.5
2022-07-30T04:41:49.190Z,9.5
2022-07-30T04:42:37.407Z,9.5
2022-07-30T04:43:37.395Z,9.5
2022-07-30T04:44:37.394Z,9.6
2022-07-30T04:45:37.414Z,9.6
2022-07-30T04:46:37.436Z,9.5
2022-07-30T04:47:37.390Z,9.6
2022-07-30T04:48:37.410Z,9.6
2022-07-30T04:49:37.399Z,9.6
2022-07-30T04:50:37.391Z,9.6
2022-07-30T04:51:37.425Z,9.6
2022-07-30T04:52:37.402Z,9.6
2022-07-30T04:53:37.402Z,9.5
2022-07-30T04:54:37.406Z,9.5
2022-07-30T04:55:37.402Z,9.5
2022-07-30T04:56:37.415Z,9.6
2022-07-30T04:57:37.390Z,9.5
2022-07-30T04:59:37.389Z,9.5
2022-07-30T05:00:40.986Z,9.5
2022-07-30T05:01:40.677Z,9.5
2022-07-30T05:02:37.401Z,9.6
2022-07-30T05:03:37.410Z,9.6
2022-07-30T05:04:37.396Z,9.5
2022-07-30T05:05:37.507Z,9.5
2022-07-30T05:06:37.409Z,9.5
2022-07-30T05:07:37.406Z,9.5
2022-07-30T05:08:37.400Z,9.5
2022-07-30T05:09:37.397Z,9.5
2022-07-30T05:10:37.417Z,9.6
2022-07-30T05:11:37.434Z,9.5
2022-07-30T05:12:37.401Z,9.6
2022-07-30T05:13:38.339Z,9.5
2022-07-30T05:14:37.411Z,9.5
2022-07-30T05:15:37.603Z,9.5
2022-07-30T05:16:37.421Z,9.5
2022-07-30T05:17:37.420Z,9.5
2022-07-30T05:18:37.467Z,9.6
2022-07-30T05:19:37.404Z,9.6
2022-07-30T05:20:37.406Z,9.5
2022-07-30T05:21:37.415Z,9.6
2022-07-30T05:22:37.413Z,9.6
2022-07-30T05:23:37.451Z,9.5
2022-07-30T05:24:37.405Z,9.6
2022-07-30T05:25:37.408Z,9.6
2022-07-30T05:26:37.405Z,9.7
2022-07-30T05:27:37.431Z,9.5
2022-07-30T05:28:37.423Z,9.7
2022-07-30T05:29:37.403Z,9.6
2022-07-30T05:30:37.536Z,9.6
2022-07-30T05:31:38.041Z,9.5
2022-07-30T05:32:37.422Z,9.7
2022-07-30T05:33:42.391Z,9.6
2022-07-30T05:34:37.420Z,9.5
2022-07-30T05:35:37.408Z,9.6
2022-07-30T05:36:37.409Z,9.6
2022-07-30T05:37:37.442Z,9.5
2022-07-30T05:38:37.413Z,9.6
2022-07-30T05:39:37.435Z,9.6
2022-07-30T05:40:37.405Z,9.6
2022-07-30T05:41:37.403Z,9.6
2022-07-30T05:42:37.428Z,9.7
2022-07-30T05:43:37.444Z,9.7
2022-07-30T05:44:37.415Z,9.6
2022-07-30T05:45:37.418Z,9.8
2022-07-30T05:46:37.531Z,9.8
2022-07-30T05:47:37.448Z,9.6
2022-07-30T05:48:37.444Z,9.8
2022-07-30T05:49:37.414Z,9.6
2022-07-30T05:50:37.418Z,9.6
2022-07-30T05:51:37.413Z,9.6
2022-07-30T05:52:37.414Z,9.6
2022-07-30T05:53:37.431Z,9.9
2022-07-30T05:54:37.417Z,9.9
2022-07-30T05:55:37.435Z,10
2022-07-30T05:56:37.416Z,10
2022-07-30T05:57:37.418Z,9.9
2022-07-30T05:58:37.439Z,9.9
2022-07-30T05:59:37.433Z,9.9
2022-07-30T06:00:37.437Z,9.7
2022-07-30T06:01:37.499Z,9.8
2022-07-30T06:02:37.409Z,9.8
2022-07-30T06:03:37.421Z,9.6
2022-07-30T06:04:37.466Z,9.9
2022-07-30T06:05:37.411Z,9.9
2022-07-30T06:06:37.423Z,10
2022-07-30T06:07:37.421Z,9.9
2022-07-30T06:08:37.434Z,10.1
2022-07-30T06:09:37.492Z,10
2022-07-30T06:10:37.462Z,9.8
2022-07-30T06:11:37.422Z,10
2022-07-30T06:12:37.427Z,10
2022-07-30T06:13:37.423Z,9.9
2022-07-30T06:14:37.431Z,9.8
2022-07-30T06:15:37.478Z,10
2022-07-30T06:16:37.425Z,10
2022-07-30T06:17:41.221Z,10.2
2022-07-30T06:18:37.440Z,10.1
2022-07-30T06:19:37.434Z,10
2022-07-30T06:20:37.497Z,10
2022-07-30T06:22:06.039Z,9.9
2022-07-30T06:22:37.460Z,10
2022-07-30T06:23:37.445Z,9.9
2022-07-30T06:24:37.436Z,10
2022-07-30T06:25:37.498Z,9.9
2022-07-30T06:26:37.428Z,9.9
2022-07-30T06:27:39.775Z,10
2022-07-30T06:28:39.045Z,10
2022-07-30T06:29:37.436Z,10
2022-07-30T06:30:37.549Z,10
2022-07-30T06:31:37.432Z,9.9
2022-07-30T06:32:37.431Z,10.1
2022-07-30T06:33:37.450Z,10.1
2022-07-30T06:34:37.442Z,10.1
2022-07-30T06:35:37.424Z,10.1
2022-07-30T06:36:37.462Z,10.1
2022-07-30T06:38:05.973Z,10
2022-07-30T06:38:37.498Z,10.2
2022-07-30T06:39:56.386Z,10.1
2022-07-30T06:40:37.422Z,10.1
2022-07-30T06:41:37.430Z,10.1
2022-07-30T06:42:37.439Z,10.2
2022-07-30T06:43:37.444Z,10.1
2022-07-30T06:44:37.433Z,10.2
2022-07-30T06:45:37.417Z,10
2022-07-30T06:46:37.561Z,10.2
2022-07-30T06:47:37.441Z,10.1
2022-07-30T06:48:37.495Z,10.1
2022-07-30T06:49:37.426Z,10.2
2022-07-30T06:50:37.444Z,10.3
2022-07-30T06:51:37.424Z,10.2
2022-07-30T06:52:37.471Z,10.2
2022-07-30T06:53:42.657Z,10.2
2022-07-30T06:54:37.433Z,10.3
2022-07-30T06:55:37.441Z,10.2
2022-07-30T06:56:37.435Z,10
2022-07-30T06:57:41.924Z,10.1
2022-07-30T06:58:37.459Z,9.9
2022-07-30T06:59:57.162Z,9.9
2022-07-30T07:00:37.442Z,10
2022-07-30T07:01:37.494Z,10.3
2022-07-30T07:02:37.438Z,9.9
2022-07-30T07:03:39.902Z,10
2022-07-30T07:04:37.530Z,9.9
2022-07-30T07:05:37.429Z,9.8
2022-07-30T07:06:37.436Z,10.1
2022-07-30T07:07:42.507Z,9.9
2022-07-30T07:08:37.439Z,9.9
2022-07-30T07:09:38.516Z,10.4
2022-07-30T07:10:37.438Z,10.5
2022-07-30T07:11:37.436Z,10.3
2022-07-30T07:12:37.439Z,9.8
2022-07-30T07:13:37.453Z,10.3
2022-07-30T07:14:37.447Z,10.4
2022-07-30T07:15:37.764Z,10
2022-07-30T07:16:37.514Z,9.9
2022-07-30T07:17:37.433Z,9.9
2022-07-30T07:18:37.446Z,9.9
2022-07-30T07:20:00.071Z,10.1
2022-07-30T07:20:37.457Z,10.1
2022-07-30T07:21:37.444Z,10.1
2022-07-30T07:22:37.507Z,10.1
2022-07-30T07:23:42.001Z,10.1
2022-07-30T07:24:37.427Z,10.1
2022-07-30T07:25:37.435Z,10.2
2022-07-30T07:26:37.450Z,10.2
2022-07-30T07:27:37.442Z,10.2
2022-07-30T07:28:37.444Z,10.1
2022-07-30T07:29:37.445Z,10.1
2022-07-30T07:30:37.523Z,10.1
2022-07-30T07:32:06.033Z,10.2
2022-07-30T07:32:37.435Z,10.2
2022-07-30T07:33:37.559Z,10.2
2022-07-30T07:34:37.560Z,10.2
2022-07-30T07:35:49.207Z,10.3
2022-07-30T07:36:37.667Z,10.2
2022-07-30T07:37:37.449Z,10.2
2022-07-30T07:38:37.465Z,10.3
2022-07-30T07:39:42.049Z,10.3
2022-07-30T07:40:37.447Z,10.3
2022-07-30T07:41:48.324Z,10.6
2022-07-30T07:42:37.454Z,10.5
2022-07-30T07:43:37.499Z,10.3
2022-07-30T07:44:37.470Z,10.5
2022-07-30T07:45:37.595Z,10.5
2022-07-30T07:46:37.444Z,10.4
2022-07-30T07:47:37.451Z,10.6
2022-07-30T07:48:37.479Z,10.6
2022-07-30T07:49:37.449Z,10.6
2022-07-30T07:50:37.458Z,10.5
2022-07-30T07:51:47.270Z,10.5
2022-07-30T07:52:37.471Z,10.5
2022-07-30T07:53:37.464Z,10.5
2022-07-30T07:54:37.448Z,10.7
2022-07-30T07:55:37.443Z,10.6
2022-07-30T07:56:37.474Z,10.6
2022-07-30T07:57:37.463Z,10.5
2022-07-30T07:58:38.275Z,10.5
2022-07-30T07:59:40.661Z,10.4
2022-07-30T08:00:37.452Z,10.4
2022-07-30T08:01:37.527Z,10.5
2022-07-30T08:02:37.529Z,10.5
2022-07-30T08:03:37.473Z,10.7
2022-07-30T08:04:37.474Z,10.8
2022-07-30T08:05:55.896Z,10.5
2022-07-30T08:06:37.476Z,10.6
2022-07-30T08:07:37.469Z,10.4
2022-07-30T08:08:37.469Z,10.6
2022-07-30T08:09:43.798Z,10.5
2022-07-30T08:10:37.471Z,10.6
2022-07-30T08:11:37.462Z,10.6
2022-07-30T08:12:37.453Z,10.5
2022-07-30T08:13:48.498Z,10.5
2022-07-30T08:14:37.459Z,10.4
2022-07-30T08:15:37.459Z,10.6
2022-07-30T08:16:37.512Z,10.4
2022-07-30T08:17:37.466Z,10.5
2022-07-30T08:18:37.485Z,10.5
2022-07-30T08:19:37.461Z,10.5
2022-07-30T08:20:37.453Z,10.6
2022-07-30T08:21:37.508Z,10.5
2022-07-30T08:22:37.474Z,10.5
2022-07-30T08:23:42.203Z,10.4
2022-07-30T08:24:37.476Z,10.4
2022-07-30T08:25:37.467Z,10.4
2022-07-30T08:26:37.469Z,10.4
2022-07-30T08:27:37.462Z,10.4
2022-07-30T08:28:37.491Z,10.6
2022-07-30T08:29:37.454Z,10.6
2022-07-30T08:30:37.470Z,10.5
2022-07-30T08:31:37.489Z,10.4
2022-07-30T08:32:37.450Z,10.4
2022-07-30T08:33:37.459Z,10.4
2022-07-30T08:34:37.461Z,10.5
2022-07-30T08:35:37.468Z,10.4
2022-07-30T08:36:37.460Z,10.5
2022-07-30T08:37:37.469Z,10.5
2022-07-30T08:38:37.458Z,10.5
2022-07-30T08:39:37.464Z,10.4
2022-07-30T08:40:37.469Z,10.5
2022-07-30T08:41:37.475Z,10.4
2022-07-30T08:42:37.499Z,10.4
2022-07-30T08:43:37.511Z,10.4
2022-07-30T08:44:37.468Z,10.5
2022-07-30T08:45:37.470Z,10.4
2022-07-30T08:46:37.469Z,10.4
2022-07-30T08:47:37.485Z,10.4
2022-07-30T08:48:37.495Z,10.5
2022-07-30T08:49:37.480Z,10.5
2022-07-30T08:50:37.459Z,10.4
2022-07-30T08:51:37.466Z,10.4
2022-07-30T08:52:37.488Z,10.4
2022-07-30T08:53:37.475Z,10.5
2022-07-30T08:54:37.464Z,10.4
2022-07-30T08:55:37.479Z,10.4
2022-07-30T08:56:37.476Z,10.4
2022-07-30T08:57:37.492Z,10.4
2022-07-30T08:58:37.478Z,10.4
2022-07-30T09:00:00.632Z,10.5
2022-07-30T09:00:37.463Z,10.4
2022-07-30T09:01:37.470Z,10.4
2022-07-30T09:02:37.491Z,10.4
2022-07-30T09:03:37.471Z,10.4
2022-07-30T09:04:37.466Z,10.4
2022-07-30T09:05:37.489Z,10.4
2022-07-30T09:06:37.476Z,10.4
2022-07-30T09:07:37.468Z,10.5
2022-07-30T09:08:37.471Z,10.4
2022-07-30T09:09:37.479Z,10.4
2022-07-30T09:10:37.478Z,10.4
2022-07-30T09:11:37.474Z,10.4
2022-07-30T09:12:37.470Z,10.2
2022-07-30T09:13:37.481Z,10.2
2022-07-30T09:14:37.496Z,10.1
2022-07-30T09:15:37.518Z,10.1
2022-07-30T09:16:37.472Z,10.3
2022-07-30T09:17:37.473Z,10.4
2022-07-30T09:18:37.498Z,10.4
2022-07-30T09:19:37.471Z,10.4
2022-07-30T09:20:37.505Z,10
2022-07-30T09:21:37.504Z,10.1
2022-07-30T09:22:37.489Z,10.1
2022-07-30T09:23:37.476Z,10.1
2022-07-30T09:24:37.483Z,10.2
2022-07-30T09:25:37.490Z,10.2
2022-07-30T09:26:37.516Z,9.8
2022-07-30T09:27:37.501Z,10
2022-07-30T09:28:37.490Z,10
2022-07-30T09:29:37.494Z,10.1
2022-07-30T09:30:37.487Z,10.1
2022-07-30T09:31:39.775Z,10.2
2022-07-30T09:32:37.482Z,10.2
2022-07-30T09:33:37.497Z,10.3
2022-07-30T09:34:37.469Z,10.3
2022-07-30T09:35:37.518Z,10.3
2022-07-30T09:36:37.488Z,10.2
2022-07-30T09:37:37.484Z,10.2
2022-07-30T09:38:37.481Z,10.3
2022-07-30T09:39:37.480Z,10.1
2022-07-30T09:40:37.496Z,10.2
2022-07-30T09:41:39.356Z,10.2
2022-07-30T09:42:37.502Z,10.2
2022-07-30T09:43:37.495Z,10.3
2022-07-30T09:44:37.490Z,10.3
2022-07-30T09:45:37.504Z,10.3
2022-07-30T09:46:37.489Z,10.2
2022-07-30T09:47:37.499Z,10
2022-07-30T09:48:37.491Z,10.2
2022-07-30T09:49:37.487Z,10.2
2022-07-30T09:50:37.498Z,10.2
2022-07-30T09:51:56.383Z,10.1
2022-07-30T09:52:43.829Z,10.1
2022-07-30T09:53:37.498Z,10.2
2022-07-30T09:54:37.481Z,10.3
2022-07-30T09:55:41.477Z,10.3
2022-07-30T09:56:37.509Z,10.3
2022-07-30T09:57:37.503Z,10.3
2022-07-30T09:58:37.492Z,10.3
2022-07-30T09:59:37.509Z,10.3
2022-07-30T10:00:37.496Z,10.3
2022-07-30T10:01:49.800Z,9.9
2022-07-30T10:02:37.507Z,9.9
2022-07-30T10:03:41.860Z,10.2
2022-07-30T10:04:37.499Z,10.2
2022-07-30T10:05:37.931Z,10.3
2022-07-30T10:07:43.589Z,10.1
2022-07-30T10:08:37.539Z,9.8
2022-07-30T10:09:37.937Z,10.2
2022-07-30T10:10:47.186Z,10
2022-07-30T10:11:37.499Z,9.8
2022-07-30T10:12:37.492Z,9.8
2022-07-30T10:13:37.589Z,10.1
2022-07-30T10:14:42.425Z,9.9
2022-07-30T10:15:37.647Z,9.9
2022-07-30T10:16:37.719Z,10.2
2022-07-30T10:17:37.520Z,10.1
2022-07-30T10:18:37.556Z,10.2
2022-07-30T10:19:40.239Z,10.3
2022-07-30T10:20:37.496Z,10.2
2022-07-30T10:21:37.521Z,10.2
2022-07-30T10:22:37.548Z,9.8
2022-07-30T10:23:39.803Z,9.6
2022-07-30T10:24:37.509Z,9.6
2022-07-30T10:25:48.885Z,10
2022-07-30T10:26:37.503Z,10.1
2022-07-30T10:27:37.512Z,10.1
2022-07-30T10:28:39.453Z,10.1
2022-07-30T10:29:37.515Z,10.1
2022-07-30T10:30:37.502Z,9.9
2022-07-30T10:31:48.888Z,9.9
2022-07-30T10:32:37.499Z,10
2022-07-30T10:33:40.078Z,10.1
2022-07-30T10:34:37.528Z,10.1
2022-07-30T10:35:38.312Z,10.1
2022-07-30T10:36:37.510Z,9.9
2022-07-30T10:37:37.533Z,10.1
2022-07-30T10:38:39.471Z,10.2
2022-07-30T10:39:37.517Z,10.2
2022-07-30T10:40:39.515Z,10.2
2022-07-30T10:41:43.359Z,10.2
2022-07-30T10:42:37.497Z,10.1
2022-07-30T10:43:37.523Z,10.1
2022-07-30T10:44:37.500Z,10
2022-07-30T10:45:37.512Z,10.1
2022-07-30T10:46:37.526Z,10.1
2022-07-30T10:47:44.242Z,9.8
2022-07-30T10:48:37.504Z,10.1
2022-07-30T10:49:40.943Z,10.2
2022-07-30T10:50:37.515Z,10.2
2022-07-30T10:51:37.516Z,10.2
2022-07-30T10:52:37.507Z,10.2
2022-07-30T10:53:37.523Z,10.2
2022-07-30T10:54:39.562Z,10.3
2022-07-30T10:55:39.234Z,10.2
2022-07-30T10:56:37.537Z,10.3
2022-07-30T10:57:41.310Z,10.3
2022-07-30T10:58:37.521Z,10.3
2022-07-30T10:59:37.530Z,10.3
2022-07-30T11:00:38.237Z,10.2
2022-07-30T11:01:37.512Z,10.2
2022-07-30T11:02:37.517Z,10.2
2022-07-30T11:03:41.432Z,10.1
2022-07-30T11:04:37.559Z,9.8
2022-07-30T11:05:45.807Z,9.8
2022-07-30T11:06:37.514Z,10.1
2022-07-30T11:07:37.527Z,9.7
2022-07-30T11:08:37.526Z,9.7
2022-07-30T11:09:40.797Z,9.9
2022-07-30T11:10:37.537Z,10.1
2022-07-30T11:12:05.010Z,10.1
2022-07-30T11:12:37.525Z,10.1
2022-07-30T11:13:38.361Z,10
2022-07-30T11:14:37.525Z,10
2022-07-30T11:15:37.524Z,9.9
2022-07-30T11:16:37.537Z,9.7
2022-07-30T11:17:37.533Z,9.6
2022-07-30T11:18:37.521Z,9.5
2022-07-30T11:19:56.620Z,9.4
2022-07-30T11:20:37.534Z,9.3
2022-07-30T11:21:37.523Z,10
2022-07-30T11:22:37.538Z,9.8
2022-07-30T11:23:37.545Z,9.3
2022-07-30T11:24:37.509Z,10
2022-07-30T11:25:51.934Z,9.7
2022-07-30T11:26:37.544Z,9.8
2022-07-30T11:27:37.518Z,9.8
2022-07-30T11:28:37.525Z,8.9
2022-07-30T11:29:50.484Z,9
2022-07-30T11:30:37.519Z,9.9
2022-07-30T11:31:56.280Z,9.2
2022-07-30T11:32:37.539Z,9.4
2022-07-30T11:33:37.532Z,9.6
2022-07-30T11:34:37.543Z,9.9
2022-07-30T11:35:37.525Z,10
2022-07-30T11:36:37.562Z,10
2022-07-30T11:37:37.539Z,9
2022-07-30T11:38:37.528Z,9.5
2022-07-30T11:39:38.761Z,9.8
2022-07-30T11:40:37.529Z,9
2022-07-30T11:41:37.532Z,9.7
2022-07-30T11:42:37.525Z,9.9
2022-07-30T11:43:37.535Z,9.2
2022-07-30T11:44:37.539Z,9.2
2022-07-30T11:45:37.519Z,9.3
2022-07-30T11:46:37.517Z,9.8
2022-07-30T11:47:37.540Z,9.8
2022-07-30T11:48:37.570Z,10
2022-07-30T11:49:37.548Z,9.8
2022-07-30T11:50:37.536Z,9.8
2022-07-30T11:51:37.529Z,9
2022-07-30T11:52:37.528Z,8.6
2022-07-30T11:53:37.553Z,9.5
2022-07-30T11:54:37.538Z,9.9
2022-07-30T11:55:37.532Z,8.6
2022-07-30T11:56:37.544Z,9.4
2022-07-30T11:57:38.251Z,9.7
2022-07-30T11:58:37.532Z,9.5
2022-07-30T11:59:37.549Z,9.4
2022-07-30T12:00:37.534Z,8.6
2022-07-30T12:01:37.542Z,8.8
2022-07-30T12:02:37.537Z,9.5
2022-07-30T12:03:37.552Z,9.6
2022-07-30T12:04:37.552Z,8.5
2022-07-30T12:05:37.533Z,9.4
2022-07-30T12:06:37.562Z,9.6
2022-07-30T12:07:37.550Z,8.9
2022-07-30T12:08:37.531Z,8.3
2022-07-30T12:09:37.564Z,8.7
2022-07-30T12:10:37.620Z,8.7
2022-07-30T12:11:37.545Z,9.4
2022-07-30T12:12:37.527Z,9.6
2022-07-30T12:13:44.364Z,9.6
2022-07-30T12:14:37.535Z,9.6
2022-07-30T12:15:37.526Z,8.4
2022-07-30T12:16:37.546Z,8
2022-07-30T12:17:37.528Z,8
2022-07-30T12:18:37.545Z,7.8
2022-07-30T12:19:48.067Z,8
2022-07-30T12:20:37.532Z,9.4
2022-07-30T12:21:37.545Z,9.5
2022-07-30T12:22:37.540Z,9
2022-07-30T12:23:37.563Z,9.5
2022-07-30T12:24:37.546Z,9.5
2022-07-30T12:25:37.555Z,9.1
2022-07-30T12:26:37.551Z,8.5
2022-07-30T12:27:37.550Z,9.2
2022-07-30T12:28:37.558Z,9.5
2022-07-30T12:29:37.565Z,9.4
2022-07-30T12:30:37.534Z,9.1
2022-07-30T12:31:38.462Z,9.2
2022-07-30T12:32:37.563Z,8.9
2022-07-30T12:33:41.881Z,8.6
2022-07-30T12:34:37.546Z,8.7
2022-07-30T12:35:37.570Z,8.6
2022-07-30T12:36:37.554Z,9.4
2022-07-30T12:37:37.553Z,8.5
2022-07-30T12:38:37.558Z,9.3
2022-07-30T12:39:37.593Z,8.7
2022-07-30T12:40:37.543Z,8.3
2022-07-30T12:41:37.554Z,9.3
2022-07-30T12:42:37.569Z,9.5
2022-07-30T12:43:37.555Z,8.3
2022-07-30T12:44:37.553Z,8.8
2022-07-30T12:45:51.837Z,9.4
2022-07-30T12:46:37.542Z,9.3
2022-07-30T12:47:37.548Z,9.2
2022-07-30T12:48:37.573Z,9.2
2022-07-30T12:49:48.883Z,9
2022-07-30T12:50:37.563Z,8.6
2022-07-30T12:51:37.572Z,8.9
2022-07-30T12:52:37.585Z,9
2022-07-30T12:53:37.568Z,9
2022-07-30T12:54:37.591Z,9.1
2022-07-30T12:55:37.550Z,8.2
2022-07-30T12:56:37.575Z,8.3
2022-07-30T12:57:37.611Z,9.2
2022-07-30T12:58:37.570Z,8.4
2022-07-30T12:59:37.575Z,9.1
2022-07-30T13:00:37.563Z,9.1
2022-07-30T13:01:37.609Z,8.6
2022-07-30T13:02:37.557Z,9.2
2022-07-30T13:03:37.558Z,8.2
2022-07-30T13:04:54.687Z,9.3
2022-07-30T13:05:37.553Z,8.2
2022-07-30T13:06:37.593Z,8.6
2022-07-30T13:07:37.584Z,9.1
2022-07-30T13:08:37.583Z,9.2
2022-07-30T13:09:37.562Z,9.3
2022-07-30T13:10:37.565Z,9.3
2022-07-30T13:11:37.594Z,8.9
2022-07-30T13:12:37.642Z,8.2
2022-07-30T13:13:37.588Z,8
2022-07-30T13:14:37.570Z,8
2022-07-30T13:15:37.571Z,8.5
2022-07-30T13:16:37.566Z,9.1
2022-07-30T13:17:38.014Z,8.6
2022-07-30T13:18:37.573Z,9.1
2022-07-30T13:19:37.559Z,9.1
2022-07-30T13:20:37.562Z,8.6
2022-07-30T13:21:37.580Z,9.2
2022-07-30T13:22:37.583Z,9.4
2022-07-30T13:23:37.561Z,9.4
2022-07-30T13:24:37.564Z,9.4
2022-07-30T13:25:38.830Z,9.4
2022-07-30T13:26:37.600Z,9.1
2022-07-30T13:27:37.587Z,8.7
2022-07-30T13:28:37.580Z,8.4
2022-07-30T13:29:37.582Z,8.4
2022-07-30T13:30:37.607Z,9.1
2022-07-30T13:31:43.039Z,9.3
2022-07-30T13:32:37.590Z,8.6
2022-07-30T13:33:37.589Z,9.2
2022-07-30T13:34:37.583Z,8.6
2022-07-30T13:35:37.730Z,9.1
2022-07-30T13:36:37.597Z,9.4
2022-07-30T13:37:38.810Z,9.4
2022-07-30T13:38:37.578Z,9.3
2022-07-30T13:39:37.565Z,8.6
2022-07-30T13:40:37.587Z,9.2
2022-07-30T13:41:37.580Z,9.2
2022-07-30T13:42:37.605Z,9.3
2022-07-30T13:43:37.594Z,8.9
2022-07-30T13:44:37.578Z,9
2022-07-30T13:45:37.596Z,9
2022-07-30T13:46:39.669Z,8.8